createdAt,value
2023-10-18T00:00:30.353Z,100731.46
2023-10-18T00:03:03.646Z,100730.11
2023-10-18T00:05:19.222Z,100730.11
2023-10-18T00:07:32.304Z,100734.41
2023-10-18T00:09:49.647Z,100734.76
2023-10-18T00:12:02.319Z,100735.13
2023-10-18T00:14:15.076Z,100735.63
2023-10-18T00:16:27.764Z,100740.10
2023-10-18T00:18:40.693Z,100741.81
2023-10-18T00:21:07.770Z,100740.45
2023-10-18T00:23:23.136Z,100741.50
2023-10-18T00:25:37.722Z,100737.39
2023-10-18T00:27:51.157Z,100736.87
2023-10-18T00:30:08.589Z,100729.52
2023-10-18T00:32:21.981Z,100728.33
2023-10-18T00:34:34.801Z,100729.86
2023-10-18T00:36:47.422Z,100732.79
2023-10-18T00:39:00.036Z,100734.50
2023-10-18T00:41:17.299Z,100738.10
2023-10-18T00:43:30.848Z,100735.37
2023-10-18T00:45:48.739Z,100732.11
2023-10-18T00:48:06.633Z,100735.38
2023-10-18T00:50:28.872Z,100729.91
2023-10-18T00:52:42.110Z,100726.66
2023-10-18T00:54:55.245Z,100727.34
2023-10-18T00:57:08.617Z,100725.80
2023-10-18T00:59:27.862Z,100724.42
2023-10-18T01:01:45.060Z,100726.84
2023-10-18T01:03:58.319Z,100728.03
2023-10-18T01:06:21.595Z,100723.58
2023-10-18T01:08:38.410Z,100730.61
2023-10-18T01:10:52.523Z,100730.09
2023-10-18T01:13:05.438Z,100720.69
2023-10-18T01:15:20.727Z,100713.84
2023-10-18T01:17:44.041Z,100715.55
2023-10-18T01:19:59.197Z,100716.75
2023-10-18T01:22:12.124Z,100714.02
2023-10-18T01:24:29.266Z,100711.28
2023-10-18T01:26:42.327Z,100712.83
2023-10-18T01:28:58.096Z,100708.20
2023-10-18T01:31:10.974Z,100703.40
2023-10-18T01:33:23.869Z,100701.86
2023-10-18T01:35:36.883Z,100702.20
2023-10-18T01:37:51.688Z,100701.70
2023-10-18T01:40:23.401Z,100695.20
2023-10-18T01:42:39.177Z,100690.07
2023-10-18T01:44:53.697Z,100695.36
2023-10-18T01:47:10.128Z,100700.86
2023-10-18T01:49:26.435Z,100696.39
2023-10-18T01:51:39.153Z,100700.15
2023-10-18T01:53:52.523Z,100697.42
2023-10-18T01:56:05.519Z,100694.51
2023-10-18T01:58:18.339Z,100690.58
2023-10-18T02:00:39.031Z,100689.02
2023-10-18T02:02:52.199Z,100683.55
2023-10-18T02:05:06.666Z,100682.86
2023-10-18T02:07:19.969Z,100680.98
2023-10-18T02:09:49.131Z,100679.10
2023-10-18T02:12:02.208Z,100672.78
2023-10-18T02:14:15.185Z,100672.94
2023-10-18T02:16:29.291Z,100677.02
2023-10-18T02:18:42.019Z,100679.08
2023-10-18T02:20:55.096Z,100676.17
2023-10-18T02:23:13.583Z,100673.10
2023-10-18T02:25:42.938Z,100666.42
2023-10-18T02:27:55.763Z,100664.89
2023-10-18T02:30:11.960Z,100667.10
2023-10-18T02:32:25.246Z,100669.33
2023-10-18T02:34:39.581Z,100670.02
2023-10-18T02:36:57.119Z,100667.42
2023-10-18T02:39:10.465Z,100670.67
2023-10-18T02:41:27.915Z,100673.06
2023-10-18T02:43:41.994Z,100672.71
2023-10-18T02:45:54.854Z,100674.42
2023-10-18T02:48:15.419Z,100684.16
2023-10-18T02:50:28.324Z,100689.95
2023-10-18T02:52:43.085Z,100692.34
2023-10-18T02:54:58.388Z,100696.93
2023-10-18T02:57:11.819Z,100698.96
2023-10-18T02:59:29.181Z,100701.35
2023-10-18T03:01:44.458Z,100698.78
2023-10-18T03:03:58.520Z,100691.42
2023-10-18T03:06:17.725Z,100686.96
2023-10-18T03:08:30.430Z,100690.70
2023-10-18T03:10:48.385Z,100692.23
2023-10-18T03:13:02.202Z,100688.45
2023-10-18T03:15:18.406Z,100686.91
2023-10-18T03:17:37.839Z,100683.48
2023-10-18T03:19:52.024Z,100685.65
2023-10-18T03:22:05.065Z,100678.48
2023-10-18T03:24:20.815Z,100674.21
2023-10-18T03:26:36.993Z,100676.46
2023-10-18T03:28:52.482Z,100676.82
2023-10-18T03:31:22.328Z,100679.56
2023-10-18T03:33:35.530Z,100678.05
2023-10-18T03:36:21.828Z,100679.77
2023-10-18T03:38:40.940Z,100676.52
2023-10-18T03:40:59.630Z,100674.99
2023-10-18T03:43:12.344Z,100672.63
2023-10-18T03:45:45.050Z,100672.11
2023-10-18T03:48:00.603Z,100665.95
2023-10-18T03:50:16.468Z,100665.77
2023-10-18T03:52:30.839Z,100663.21
2023-10-18T03:54:56.371Z,100663.90
2023-10-18T03:57:09.038Z,100662.20
2023-10-18T03:59:24.681Z,100661.19
2023-10-18T04:01:46.176Z,100657.96
2023-10-18T04:03:59.141Z,100655.59
2023-10-18T04:06:22.662Z,100649.77
2023-10-18T04:08:35.843Z,100646.17
2023-10-18T04:10:59.984Z,100641.23
2023-10-18T04:13:13.559Z,100640.90
2023-10-18T04:15:31.048Z,100638.83
2023-10-18T04:17:43.980Z,100634.90
2023-10-18T04:19:56.801Z,100632.88
2023-10-18T04:22:11.086Z,100629.13
2023-10-18T04:24:24.917Z,100627.57
2023-10-18T04:26:37.820Z,100626.73
2023-10-18T04:28:55.721Z,100622.12
2023-10-18T04:31:13.120Z,100619.73
2023-10-18T04:33:26.242Z,100617.84
2023-10-18T04:35:48.357Z,100614.95
2023-10-18T04:38:04.309Z,100617.48
2023-10-18T04:40:23.734Z,100616.80
2023-10-18T04:42:39.185Z,100619.19
2023-10-18T04:44:51.905Z,100622.41
2023-10-18T04:47:15.875Z,100620.22
2023-10-18T04:49:38.143Z,100622.62
2023-10-18T04:51:55.369Z,100619.91
2023-10-18T04:54:19.947Z,100622.98
2023-10-18T04:56:35.689Z,100626.58
2023-10-18T04:58:48.573Z,100624.52
2023-10-18T05:01:08.999Z,100623.00
2023-10-18T05:03:25.764Z,100618.73
2023-10-18T05:05:45.705Z,100620.97
2023-10-18T05:08:01.523Z,100619.08
2023-10-18T05:10:24.067Z,100619.75
2023-10-18T05:12:48.312Z,100625.57
2023-10-18T05:15:00.987Z,100622.48
2023-10-18T05:17:24.061Z,100624.19
2023-10-18T05:19:38.817Z,100624.34
2023-10-18T05:21:52.506Z,100623.67
2023-10-18T05:24:05.774Z,100623.86
2023-10-18T05:26:18.771Z,100626.25
2023-10-18T05:28:43.988Z,100623.69
2023-10-18T05:31:08.771Z,100621.80
2023-10-18T05:33:39.696Z,100618.90
2023-10-18T05:35:56.486Z,100623.52
2023-10-18T05:38:20.604Z,100624.36
2023-10-18T05:40:40.131Z,100624.70
2023-10-18T05:42:52.762Z,100622.81
2023-10-18T05:45:06.089Z,100624.87
2023-10-18T05:47:18.781Z,100626.92
2023-10-18T05:49:35.595Z,100626.56
2023-10-18T05:51:54.522Z,100625.71
2023-10-18T05:54:07.541Z,100627.94
2023-10-18T05:56:24.056Z,100627.62
2023-10-18T05:58:36.799Z,100625.41
2023-10-18T06:00:49.737Z,100626.77
2023-10-18T06:03:02.558Z,100627.98
2023-10-18T06:05:15.511Z,100623.04
2023-10-18T06:07:30.457Z,100619.94
2023-10-18T06:09:58.833Z,100619.27
2023-10-18T06:12:15.886Z,100622.01
2023-10-18T06:14:41.849Z,100625.77
2023-10-18T06:17:07.787Z,100622.52
2023-10-18T06:19:29.197Z,100618.26
2023-10-18T06:21:58.837Z,100618.77
2023-10-18T06:24:17.937Z,100613.80
2023-10-18T06:26:31.416Z,100613.29
2023-10-18T06:28:46.265Z,100617.55
2023-10-18T06:30:59.072Z,100621.66
2023-10-18T06:33:14.136Z,100620.45
2023-10-18T06:35:27.857Z,100620.11
2023-10-18T06:37:43.687Z,100626.11
2023-10-18T06:40:00.226Z,100632.25
2023-10-18T06:42:14.032Z,100635.17
2023-10-18T06:44:31.640Z,100635.84
2023-10-18T06:46:45.907Z,100634.29
2023-10-18T06:51:18.603Z,100635.80
2023-10-18T06:53:31.357Z,100635.08
2023-10-18T06:55:57.225Z,100633.48
2023-10-18T06:58:23.796Z,100630.36
2023-10-18T07:00:37.152Z,100626.88
2023-10-18T07:02:51.645Z,100625.29
2023-10-18T07:05:05.778Z,100624.01
2023-10-18T07:07:21.940Z,100620.20
2023-10-18T07:09:37.826Z,100620.17
2023-10-18T07:11:52.550Z,100621.87
2023-10-18T07:14:05.662Z,100618.07
2023-10-18T07:16:26.698Z,100612.20
2023-10-18T07:18:45.371Z,100610.28
2023-10-18T07:21:00.436Z,100609.52
2023-10-18T07:23:22.465Z,100611.16
2023-10-18T07:25:36.968Z,100611.45
2023-10-18T07:27:50.986Z,100608.96
2023-10-18T07:30:15.245Z,100602.36
2023-10-18T07:32:30.050Z,100602.27
2023-10-18T07:34:43.858Z,100604.11
2023-10-18T07:36:56.911Z,100603.53
2023-10-18T07:39:12.730Z,100603.77
2023-10-18T07:41:27.747Z,100605.41
2023-10-18T07:43:42.508Z,100601.36
2023-10-18T07:45:55.449Z,100605.55
2023-10-18T07:48:08.188Z,100606.92
2023-10-18T07:50:36.183Z,100605.41
2023-10-18T07:52:48.932Z,100600.25
2023-10-18T07:55:02.449Z,100595.61
2023-10-18T07:57:18.978Z,100596.80
2023-10-18T07:59:32.455Z,100591.26
2023-10-18T08:01:50.034Z,100592.08
2023-10-18T08:04:02.891Z,100589.22
2023-10-18T08:06:27.245Z,100589.38
2023-10-18T08:08:42.945Z,100592.50
2023-10-18T08:10:56.117Z,100595.75
2023-10-18T08:13:09.559Z,100594.98
2023-10-18T08:15:24.237Z,100593.89
2023-10-18T08:17:47.630Z,100594.60
2023-10-18T08:20:20.569Z,100592.77
2023-10-18T08:22:33.206Z,100585.56
2023-10-18T08:24:51.223Z,100584.34
2023-10-18T08:27:13.115Z,100583.26
2023-10-18T08:29:27.850Z,100584.88
2023-10-18T08:31:40.666Z,100581.66
2023-10-18T08:33:57.352Z,100583.14
2023-10-18T08:36:14.580Z,100580.73
2023-10-18T08:38:30.090Z,100578.38
2023-10-18T08:40:43.992Z,100576.89
2023-10-18T08:43:07.780Z,100576.40
2023-10-18T08:45:24.626Z,100570.79
2023-10-18T08:47:40.842Z,100567.23
2023-10-18T08:49:56.253Z,100565.85
2023-10-18T08:52:11.704Z,100564.61
2023-10-18T08:54:25.815Z,100561.50
2023-10-18T08:56:42.648Z,100562.60
2023-10-18T08:58:58.111Z,100555.59
2023-10-18T09:01:22.910Z,100555.62
2023-10-18T09:03:37.405Z,100547.94
2023-10-18T09:05:51.897Z,100545.57
2023-10-18T09:08:05.881Z,100547.20
2023-10-18T09:10:47.557Z,100543.97
2023-10-18T09:13:20.002Z,100539.98
2023-10-18T09:15:59.540Z,100538.09
2023-10-18T09:18:14.304Z,100539.93
2023-10-18T09:20:27.558Z,100538.38
2023-10-18T09:22:42.765Z,100534.23
2023-10-18T09:24:56.138Z,100531.45
2023-10-18T09:27:08.856Z,100530.25
2023-10-18T09:29:21.512Z,100522.52
2023-10-18T09:31:34.266Z,100526.13
2023-10-18T09:33:50.373Z,100522.16
2023-10-18T09:36:04.627Z,100512.95
2023-10-18T09:38:19.287Z,100509.52
2023-10-18T09:40:32.129Z,100509.45
2023-10-18T09:42:45.390Z,100504.36
2023-10-18T09:44:58.734Z,100505.19
2023-10-18T09:47:11.624Z,100502.42
2023-10-18T09:49:26.656Z,100502.06
2023-10-18T09:51:45.703Z,100500.00
2023-10-18T09:54:00.267Z,100495.19
2023-10-18T09:56:15.310Z,100488.64
2023-10-18T09:58:30.625Z,100486.92
2023-10-18T10:00:51.534Z,100480.32
2023-10-18T10:03:09.976Z,100478.72
2023-10-18T10:05:26.307Z,100477.05
2023-10-18T10:07:46.093Z,100470.84
2023-10-18T10:10:09.469Z,100469.23
2023-10-18T10:12:28.569Z,100457.88
2023-10-18T10:14:42.896Z,100450.58
2023-10-18T10:17:21.760Z,100444.58
2023-10-18T10:19:43.780Z,100445.21
2023-10-18T10:22:05.968Z,100437.27
2023-10-18T10:24:32.640Z,100430.61
2023-10-18T10:26:49.187Z,100429.24
2023-10-18T10:29:05.720Z,100431.77
2023-10-18T10:31:22.956Z,100424.33
2023-10-18T10:34:07.765Z,100425.35
2023-10-18T10:36:21.986Z,100422.57
2023-10-18T10:38:34.776Z,100420.98
2023-10-18T10:40:50.453Z,100418.06
2023-10-18T10:43:11.261Z,100414.02
2023-10-18T10:45:33.491Z,100414.00
2023-10-18T10:47:46.897Z,100407.40
2023-10-18T10:50:01.667Z,100402.14
2023-10-18T10:52:19.803Z,100395.04
2023-10-18T10:54:32.646Z,100394.23
2023-10-18T10:56:50.963Z,100384.86
2023-10-18T10:59:08.146Z,100378.80
2023-10-18T11:01:33.177Z,100379.82
2023-10-18T11:03:55.882Z,100372.49
2023-10-18T11:06:11.437Z,100373.73
2023-10-18T11:08:24.196Z,100369.70
2023-10-18T11:10:40.996Z,100364.00
2023-10-18T11:12:53.817Z,100358.61
2023-10-18T11:15:17.181Z,100357.05
2023-10-18T11:17:30.761Z,100357.83
2023-10-18T11:19:54.766Z,100352.17
2023-10-18T11:22:12.937Z,100347.18
2023-10-18T11:24:26.314Z,100345.41
2023-10-18T11:26:44.615Z,100347.85
2023-10-18T11:29:06.908Z,100345.84
2023-10-18T11:31:19.793Z,100342.75
2023-10-18T11:33:55.997Z,100341.77
2023-10-18T11:36:10.050Z,100338.95
2023-10-18T11:38:23.316Z,100336.33
2023-10-18T11:40:41.935Z,100334.95
2023-10-18T11:43:10.108Z,100337.60
2023-10-18T11:45:28.993Z,100334.04
2023-10-18T11:47:50.088Z,100332.63
2023-10-18T11:50:02.872Z,100327.51
2023-10-18T11:52:23.245Z,100322.88
2023-10-18T11:54:37.204Z,100320.98
2023-10-18T11:56:49.810Z,100324.48
2023-10-18T11:59:02.463Z,100322.80
2023-10-18T12:01:20.417Z,100319.81
2023-10-18T12:03:39.619Z,100312.70
2023-10-18T12:05:58.335Z,100311.18
2023-10-18T12:08:14.352Z,100305.45
2023-10-18T12:10:36.427Z,100304.95
2023-10-18T12:12:50.909Z,100302.35
2023-10-18T12:15:07.737Z,100299.48
2023-10-18T12:17:23.378Z,100295.17
2023-10-18T12:19:38.314Z,100292.34
2023-10-18T12:21:55.392Z,100290.42
2023-10-18T12:24:11.645Z,100289.34
2023-10-18T12:26:26.130Z,100283.92
2023-10-18T12:28:39.295Z,100284.31
2023-10-18T12:30:56.543Z,100282.73
2023-10-18T12:33:15.665Z,100280.79
2023-10-18T12:35:30.583Z,100277.88
2023-10-18T12:37:43.412Z,100274.86
2023-10-18T12:39:59.318Z,100275.23
2023-10-18T12:42:13.810Z,100268.65
2023-10-18T12:44:27.218Z,100264.89
2023-10-18T12:46:42.360Z,100266.30
2023-10-18T12:48:57.794Z,100261.80
2023-10-18T12:51:13.735Z,100256.73
2023-10-18T12:53:26.476Z,100251.52
2023-10-18T12:55:44.849Z,100249.23
2023-10-18T12:57:57.892Z,100243.05
2023-10-18T13:00:18.062Z,100238.91
2023-10-18T13:02:54.059Z,100235.29
2023-10-18T13:05:11.474Z,100233.95
2023-10-18T13:07:29.563Z,100233.42
2023-10-18T13:09:45.782Z,100231.25
2023-10-18T13:12:16.977Z,100226.77
2023-10-18T13:14:33.162Z,100222.83
2023-10-18T13:16:46.400Z,100218.77
2023-10-18T13:18:58.976Z,100211.66
2023-10-18T13:21:13.033Z,100209.42
2023-10-18T13:23:28.749Z,100207.62
2023-10-18T13:25:54.753Z,100204.02
2023-10-18T13:28:07.620Z,100202.95
2023-10-18T13:30:39.133Z,100198.05
2023-10-18T13:32:51.937Z,100195.31
2023-10-18T13:35:16.177Z,100193.49
2023-10-18T13:37:29.094Z,100195.23
2023-10-18T13:39:43.462Z,100196.39
2023-10-18T13:44:11.759Z,100193.33
2023-10-18T13:46:24.646Z,100194.30
2023-10-18T13:48:39.663Z,100193.79
2023-10-18T13:50:59.800Z,100190.15
2023-10-18T13:53:12.542Z,100188.68
2023-10-18T13:55:26.786Z,100183.86
2023-10-18T13:57:39.710Z,100177.41
2023-10-18T13:59:52.340Z,100174.34
2023-10-18T14:02:05.498Z,100176.45
2023-10-18T14:04:27.681Z,100174.48
2023-10-18T14:06:54.205Z,100171.45
2023-10-18T14:09:11.706Z,100170.07
2023-10-18T14:11:28.548Z,100165.08
2023-10-18T14:13:44.627Z,100162.05
2023-10-18T14:15:57.474Z,100159.33
2023-10-18T14:18:10.457Z,100161.60
2023-10-18T14:20:26.496Z,100157.49
2023-10-18T14:22:40.321Z,100157.48
2023-10-18T14:24:54.782Z,100152.77
2023-10-18T14:27:09.155Z,100154.92
2023-10-18T14:29:24.154Z,100156.87
2023-10-18T14:31:37.221Z,100157.09
2023-10-18T14:34:03.123Z,100155.66
2023-10-18T14:36:19.716Z,100151.58
2023-10-18T14:38:33.954Z,100152.35
2023-10-18T14:41:02.118Z,100146.95
2023-10-18T14:43:17.959Z,100146.03
2023-10-18T14:45:34.707Z,100148.98
2023-10-18T14:47:49.608Z,100151.78
2023-10-18T14:50:04.694Z,100145.90
2023-10-18T14:52:20.531Z,100141.84
2023-10-18T14:54:33.157Z,100141.75
2023-10-18T14:56:46.126Z,100134.77
2023-10-18T14:58:59.382Z,100134.34
2023-10-18T15:01:16.966Z,100136.86
2023-10-18T15:03:30.371Z,100135.95
2023-10-18T15:05:43.965Z,100130.05
2023-10-18T15:07:59.291Z,100124.62
2023-10-18T15:10:12.076Z,100120.37
2023-10-18T15:12:24.761Z,100116.09
2023-10-18T15:14:38.961Z,100115.38
2023-10-18T15:16:51.694Z,100113.05
2023-10-18T15:19:07.262Z,100110.98
2023-10-18T15:21:19.932Z,100114.89
2023-10-18T15:23:32.745Z,100112.49
2023-10-18T15:25:45.460Z,100110.91
2023-10-18T15:27:58.157Z,100107.42
2023-10-18T15:30:11.274Z,100103.55
2023-10-18T15:32:24.091Z,100098.95
2023-10-18T15:34:36.859Z,100099.85
2023-10-18T15:36:50.319Z,100100.34
2023-10-18T15:39:03.120Z,100096.59
2023-10-18T15:41:19.434Z,100094.62
2023-10-18T15:43:39.159Z,100092.14
2023-10-18T15:45:51.979Z,100093.86
2023-10-18T15:48:05.052Z,100092.65
2023-10-18T15:50:17.932Z,100091.11
2023-10-18T15:52:31.496Z,100094.11
2023-10-18T15:54:44.125Z,100092.34
2023-10-18T15:56:56.734Z,100089.33
2023-10-18T15:59:10.133Z,100085.98
2023-10-18T16:01:23.470Z,100088.77
2023-10-18T16:03:36.560Z,100083.88
2023-10-18T16:05:49.418Z,100085.69
2023-10-18T16:08:02.239Z,100084.07
2023-10-18T16:10:15.062Z,100089.56
2023-10-18T16:12:27.702Z,100084.89
2023-10-18T16:14:42.814Z,100083.36
2023-10-18T16:16:55.911Z,100084.49
2023-10-18T16:19:11.373Z,100087.11
2023-10-18T16:21:27.419Z,100084.27
2023-10-18T16:23:43.018Z,100085.83
2023-10-18T16:25:56.039Z,100084.68
2023-10-18T16:28:10.523Z,100082.98
2023-10-18T16:30:23.103Z,100084.06
2023-10-18T16:32:35.934Z,100082.51
2023-10-18T16:34:49.935Z,100078.21
2023-10-18T16:37:03.647Z,100079.85
2023-10-18T16:39:19.482Z,100079.58
2023-10-18T16:41:32.288Z,100077.30
2023-10-18T16:43:45.032Z,100076.90
2023-10-18T16:45:58.330Z,100076.30
2023-10-18T16:48:11.415Z,100076.00
2023-10-18T16:50:27.493Z,100073.96
2023-10-18T16:52:44.607Z,100073.02
2023-10-18T16:54:57.387Z,100075.14
2023-10-18T16:57:10.051Z,100076.85
2023-10-18T16:59:22.733Z,100072.62
2023-10-18T17:01:35.439Z,100074.11
2023-10-18T17:03:49.540Z,100073.52
2023-10-18T17:06:06.205Z,100073.48
2023-10-18T17:08:18.819Z,100072.04
2023-10-18T17:10:31.777Z,100068.73
2023-10-18T17:12:45.337Z,100067.31
2023-10-18T17:14:57.960Z,100067.27
2023-10-18T17:17:10.719Z,100063.79
2023-10-18T17:19:23.439Z,100066.31
2023-10-18T17:21:36.816Z,100063.70
2023-10-18T17:23:49.897Z,100061.05
2023-10-18T17:26:02.788Z,100058.33
2023-10-18T17:28:18.577Z,100059.39
2023-10-18T17:30:34.122Z,100056.22
2023-10-18T17:32:48.234Z,100056.79
2023-10-18T17:35:00.976Z,100053.70
2023-10-18T17:37:13.796Z,100054.08
2023-10-18T17:39:27.023Z,100050.14
2023-10-18T17:41:39.711Z,100046.00
2023-10-18T17:43:52.969Z,100042.55
2023-10-18T17:46:05.744Z,100036.85
2023-10-18T17:48:19.374Z,100036.33
2023-10-18T17:50:35.384Z,100034.59
2023-10-18T17:52:49.926Z,100034.77
2023-10-18T17:55:03.749Z,100036.83
2023-10-18T17:57:19.367Z,100033.85
2023-10-18T17:59:32.335Z,100034.12
2023-10-18T18:01:46.860Z,100031.79
2023-10-18T18:03:59.556Z,100028.60
2023-10-18T18:06:12.457Z,100029.59
2023-10-18T18:08:27.118Z,100027.27
2023-10-18T18:10:46.385Z,100020.84
2023-10-18T18:12:59.188Z,100018.06
2023-10-18T18:15:15.354Z,100013.31
2023-10-18T18:17:28.172Z,100016.32
2023-10-18T18:19:41.036Z,100014.88
2023-10-18T18:21:54.233Z,100011.39
2023-10-18T18:24:07.155Z,100013.72
2023-10-18T18:28:34.126Z,100007.98
2023-10-18T18:30:48.787Z,100006.01
2023-10-18T18:33:03.077Z,100004.89
2023-10-18T18:35:15.967Z,100003.10
2023-10-18T18:37:28.907Z,100002.67
2023-10-18T18:39:41.783Z,100000.86
2023-10-18T18:41:54.670Z,100002.84
2023-10-18T18:44:08.739Z,100000.63
2023-10-18T18:46:35.579Z,99997.90
2023-10-18T18:48:51.575Z,99996.96
2023-10-18T18:51:07.110Z,99993.05
2023-10-18T18:53:20.975Z,99992.92
2023-10-18T18:55:36.522Z,99992.29
2023-10-18T18:57:51.839Z,99993.36
2023-10-18T19:00:10.387Z,99988.58
2023-10-18T19:02:23.379Z,99985.70
2023-10-18T19:04:36.053Z,99980.76
2023-10-18T19:06:48.645Z,99976.80
2023-10-18T19:09:01.424Z,99971.17
2023-10-18T19:11:24.881Z,99965.19
2023-10-18T19:13:37.883Z,99964.05
2023-10-18T19:15:50.617Z,99964.04
2023-10-18T19:18:04.113Z,99966.19
2023-10-18T19:20:19.434Z,99967.02
2023-10-18T19:22:33.432Z,99968.35
2023-10-18T19:24:46.107Z,99963.83
2023-10-18T19:27:02.238Z,99959.14
2023-10-18T19:29:15.556Z,99956.17
2023-10-18T19:31:28.643Z,99958.02
2023-10-18T19:33:41.322Z,99956.84
2023-10-18T19:35:54.409Z,99955.32
2023-10-18T19:38:07.041Z,99956.38
2023-10-18T19:40:19.925Z,99955.60
2023-10-18T19:42:32.591Z,99953.77
2023-10-18T19:44:45.450Z,99950.79
2023-10-18T19:46:58.101Z,99948.64
2023-10-18T19:49:10.771Z,99950.19
2023-10-18T19:51:23.380Z,99946.58
2023-10-18T19:53:37.597Z,99945.70
2023-10-18T19:55:51.010Z,99947.36
2023-10-18T19:58:03.852Z,99944.66
2023-10-18T20:00:16.839Z,99942.55
2023-10-18T20:02:29.608Z,99945.42
2023-10-18T20:04:42.399Z,99940.52
2023-10-18T20:06:55.102Z,99940.26
2023-10-18T20:09:07.861Z,99937.73
2023-10-18T20:11:20.596Z,99937.83
2023-10-18T20:13:33.374Z,99930.89
2023-10-18T20:15:48.848Z,99929.30
2023-10-18T20:18:01.662Z,99924.59
2023-10-18T20:20:16.935Z,99927.73
2023-10-18T20:22:29.588Z,99924.27
2023-10-18T20:24:42.279Z,99929.11
2023-10-18T20:26:55.195Z,99931.75
2023-10-18T20:29:09.577Z,99924.00
2023-10-18T20:31:27.251Z,99922.65
2023-10-18T20:33:40.087Z,99918.42
2023-10-18T20:35:55.677Z,99918.66
2023-10-18T20:38:09.052Z,99914.76
2023-10-18T20:40:21.853Z,99909.36
2023-10-18T20:42:35.614Z,99908.88
2023-10-18T20:44:50.030Z,99906.19
2023-10-18T20:47:06.037Z,99903.16
2023-10-18T20:49:19.596Z,99905.98
2023-10-18T20:51:33.817Z,99904.81
2023-10-18T20:56:12.014Z,99900.96
2023-10-18T20:58:24.790Z,99892.23
2023-10-18T21:00:37.856Z,99888.88
2023-10-18T21:02:51.939Z,99892.73
2023-10-18T21:05:10.962Z,99889.70
2023-10-18T21:07:26.350Z,99888.20
2023-10-18T21:09:42.150Z,99884.32
2023-10-18T21:11:54.762Z,99884.38
2023-10-18T21:14:07.381Z,99882.05
2023-10-18T21:16:20.197Z,99877.94
2023-10-18T21:18:32.922Z,99874.02
2023-10-18T21:20:45.612Z,99865.50
2023-10-18T21:23:00.450Z,99868.64
2023-10-18T21:25:16.734Z,99862.17
2023-10-18T21:27:29.897Z,99868.60
2023-10-18T21:29:42.689Z,99864.73
2023-10-18T21:31:55.711Z,99860.30
2023-10-18T21:34:11.156Z,99856.53
2023-10-18T21:36:24.277Z,99858.25
2023-10-18T21:38:38.702Z,99851.96
2023-10-18T21:40:51.420Z,99847.70
2023-10-18T21:43:07.872Z,99841.75
2023-10-18T21:45:20.660Z,99833.58
2023-10-18T21:47:34.019Z,99834.30
2023-10-18T21:49:48.649Z,99836.70
2023-10-18T21:52:01.913Z,99831.41
2023-10-18T21:54:14.680Z,99832.25
2023-10-18T21:56:27.377Z,99825.90
2023-10-18T21:58:44.737Z,99820.60
2023-10-18T22:01:03.697Z,99818.23
2023-10-18T22:03:16.658Z,99820.50
2023-10-18T22:05:29.851Z,99814.52
2023-10-18T22:07:43.589Z,99812.85
2023-10-18T22:09:56.586Z,99810.33
2023-10-18T22:12:10.130Z,99805.55
2023-10-18T22:14:23.110Z,99805.09
2023-10-18T22:16:40.149Z,99804.42
2023-10-18T22:18:55.887Z,99803.55
2023-10-18T22:21:08.568Z,99796.52
2023-10-18T22:23:21.672Z,99795.11
2023-10-18T22:25:56.235Z,99792.88
2023-10-18T22:28:16.330Z,99792.08
2023-10-18T22:30:31.843Z,99789.19
2023-10-18T22:32:44.792Z,99790.55
2023-10-18T22:35:00.880Z,99787.66
2023-10-18T22:37:14.300Z,99784.73
2023-10-18T22:39:35.282Z,99785.08
2023-10-18T22:41:48.084Z,99785.45
2023-10-18T22:44:09.427Z,99778.94
2023-10-18T22:46:48.484Z,99771.95
2023-10-18T22:49:10.457Z,99768.95
2023-10-18T22:51:36.129Z,99774.11
2023-10-18T22:53:54.563Z,99771.25
2023-10-18T22:56:11.471Z,99767.69
2023-10-18T22:58:27.934Z,99760.70
2023-10-18T23:00:43.262Z,99758.67
2023-10-18T23:02:56.081Z,99757.33
2023-10-18T23:05:20.630Z,99755.77
2023-10-18T23:07:33.671Z,99752.03
2023-10-18T23:09:46.324Z,99747.92
2023-10-18T23:11:59.284Z,99744.39
2023-10-18T23:14:37.910Z,99739.68
2023-10-18T23:16:51.755Z,99733.14
2023-10-18T23:19:31.150Z,99728.89
2023-10-18T23:21:44.983Z,99727.08
2023-10-18T23:24:06.859Z,99722.41
2023-10-18T23:26:38.224Z,99728.39
2023-10-18T23:28:52.162Z,99726.54
2023-10-18T23:31:09.241Z,99725.30
2023-10-18T23:33:32.308Z,99718.85
2023-10-18T23:35:47.933Z,99722.86
2023-10-18T23:38:19.143Z,99722.15
2023-10-18T23:40:50.965Z,99716.64
2023-10-18T23:43:22.647Z,99716.95
2023-10-18T23:45:35.646Z,99711.77
2023-10-18T23:47:48.321Z,99705.38
2023-10-18T23:50:17.779Z,99696.92
2023-10-18T23:52:37.549Z,99695.73
2023-10-18T23:54:53.057Z,99693.66
2023-10-18T23:57:11.944Z,99685.79
2023-10-18T23:59:30.785Z,99682.36
